Time;durP1;ratioP1;P1;durP2;ratioP2;P2;SDS_P1;SDS_P2;PMS_P1;PMS_P2;Temp;Humidity;BMP_temperature;BMP_pressure;BME280_temperature;BME280_humidity;BME280_pressure;Samples;Min_cycle;Max_cycle;Signal;HPM_P1;HPM_P2
2022/09/13 00:01:37;;;;;;;5.70;5.30;;;18.50;89.20;;;;;;2615997;54;20169;-72
2022/09/13 00:07:25;;;;;;;6.23;5.67;;;18.50;89.60;;;;;;2615933;54;20658;-73
2022/09/13 00:13:14;;;;;;;6.70;4.80;;;18.40;91.00;;;;;;2614719;54;20130;-73
2022/09/13 00:19:01;;;;;;;6.63;5.50;;;18.70;86.00;;;;;;2615761;54;20495;-72
2022/09/13 00:24:49;;;;;;;5.30;4.90;;;18.60;87.60;;;;;;2615426;54;20172;-72
2022/09/13 00:30:37;;;;;;;6.00;5.50;;;18.70;85.00;;;;;;2615717;54;20185;-72
2022/09/13 00:36:25;;;;;;;5.30;4.90;;;18.60;87.20;;;;;;2615333;54;20122;-72
2022/09/13 00:42:13;;;;;;;5.43;5.00;;;18.70;86.70;;;;;;2616014;54;20300;-72
2022/09/13 00:48:05;;;;;;;5.60;5.10;;;18.70;85.10;;;;;;2616000;39;20800;-73
2022/09/13 00:53:58;;;;;;;6.33;5.73;;;18.60;86.90;;;;;;2615749;54;20410;-71
2022/09/13 01:06:10;;;;;;;5.70;5.30;;;18.80;86.30;;;;;;2616694;54;20402;-72
2022/09/13 01:18:20;;;;;;;9.27;4.70;;;18.70;88.70;;;;;;2617564;54;20518;-72
2022/09/13 01:28:23;;;;;;;7.80;5.47;;;18.60;89.00;;;;;;2615755;54;20130;-74
2022/09/13 01:34:54;;;;;;;6.70;4.90;;;18.30;91.70;;;;;;2617397;54;20390;-73
2022/09/13 01:40:45;;;;;;;7.47;5.70;;;18.40;91.20;;;;;;2617051;54;20435;-72
2022/09/13 01:53:00;;;;;;;9.40;4.68;;;18.30;90.50;;;;;;2617062;54;20438;-74
2022/09/13 01:58:54;;;;;;;5.33;4.93;;;18.50;89.10;;;;;;2616766;54;20450;-72
2022/09/13 02:11:26;;;;;;;5.60;5.10;;;18.40;89.00;;;;;;2615568;54;20389;-73
2022/09/13 02:17:22;;;;;;;6.00;5.50;;;18.50;88.60;;;;;;2615878;54;20514;-73
2022/09/13 02:39:31;;;;;;;6.30;5.70;;;18.40;90.70;;;;;;2613446;54;20438;-72
2022/09/13 03:04:54;;;;;;;8.47;5.80;;;18.40;92.70;;;;;;2613476;54;20376;-75
2022/09/13 03:18:05;;;;;;;6.10;5.23;;;18.60;90.90;;;;;;2612732;54;20413;-73
2022/09/13 03:33:58;;;;;;;6.33;5.43;;;18.70;89.70;;;;;;2613191;54;20130;-73
2022/09/13 03:46:21;;;;;;;7.10;5.50;;;18.80;90.60;;;;;;2613329;54;20166;-71
2022/09/13 03:52:09;;;;;;;6.60;5.87;;;18.60;92.90;;;;;;2614070;39;21011;-73
2022/09/13 03:57:56;;;;;;;6.00;5.60;;;18.50;95.60;;;;;;2614415;54;20519;-73
2022/09/13 04:03:44;;;;;;;6.70;6.10;;;18.40;99.40;;;;;;2614072;54;20141;-72
2022/09/13 04:09:32;;;;;;;5.77;5.17;;;18.40;99.90;;;;;;2614928;54;20124;-73
2022/09/13 04:15:20;;;;;;;6.50;5.70;;;18.40;99.90;;;;;;2614645;39;20545;-72
2022/09/13 04:21:08;;;;;;;6.07;5.47;;;18.10;99.90;;;;;;2614577;54;20388;-73
2022/09/13 04:26:56;;;;;;;6.40;5.63;;;18.10;99.90;;;;;;2614907;39;20525;-72
2022/09/13 04:33:10;;;;;;;6.40;5.90;;;18.00;99.90;;;;;;2614852;39;20616;-73
2022/09/13 04:36:10;;;;;;;7.90;6.13;;;18.00;99.90;;;;;;2615476;54;20450;-73
2022/09/13 04:41:58;;;;;;;6.90;6.20;;;18.20;99.90;;;;;;2616301;39;20787;-73
2022/09/13 04:47:51;;;;;;;6.40;5.90;;;18.10;99.90;;;;;;2615094;54;21721;-73
2022/09/13 04:53:39;;;;;;;10.13;7.03;;;18.30;99.90;;;;;;2613642;54;20391;-74
2022/09/13 04:59:26;;;;;;;6.00;5.50;;;18.20;99.90;;;;;;2614445;54;20129;-72
2022/09/13 05:05:14;;;;;;;10.80;7.80;;;18.00;99.90;;;;;;2615167;54;20163;-73
2022/09/13 05:11:03;;;;;;;6.43;5.80;;;18.00;99.90;;;;;;2615484;54;20157;-74
2022/09/13 05:16:51;;;;;;;11.93;6.87;;;18.00;99.90;;;;;;2614129;54;20434;-72
2022/09/13 05:22:38;;;;;;;17.75;5.45;;;18.10;99.90;;;;;;2614555;31;20593;-74
2022/09/13 05:28:28;;;;;;;5.53;5.13;;;18.20;99.90;;;;;;2615118;54;20130;-73
2022/09/13 05:37:37;;;;;;;5.90;5.30;;;18.20;99.90;;;;;;2615275;54;20425;-73
2022/09/13 05:43:27;;;;;;;6.07;5.68;;;18.40;99.90;;;;;;2611271;54;20290;-71
2022/09/13 05:46:30;;;;;;;5.73;5.23;;;18.40;99.90;;;;;;2613873;54;20170;-76
2022/09/13 05:48:59;;;;;;;5.70;5.20;;;18.50;99.90;;;;;;2614703;47;20459;-73
2022/09/13 05:54:47;;;;;;;9.73;6.30;;;18.60;99.90;;;;;;2612813;54;20134;-75
2022/09/13 06:00:35;;;;;;;7.68;5.70;;;18.60;99.90;;;;;;2615139;54;20649;-73
2022/09/13 06:06:24;;;;;;;8.50;5.90;;;18.80;99.90;;;;;;2615693;39;20540;-73
2022/09/13 06:12:11;;;;;;;6.00;5.37;;;18.70;99.90;;;;;;2615226;54;20391;-74
2022/09/13 06:17:59;;;;;;;6.85;5.10;;;18.70;99.90;;;;;;2615111;54;20126;-73
2022/09/13 06:23:52;;;;;;;6.90;5.60;;;18.80;99.90;;;;;;2610829;54;20813;-73
2022/09/13 06:29:39;;;;;;;6.20;5.70;;;18.90;99.90;;;;;;2615426;54;21022;-72
2022/09/13 06:35:27;;;;;;;6.70;5.80;;;18.90;99.90;;;;;;2613545;54;20205;-72
2022/09/13 06:41:23;;;;;;;6.93;6.00;;;19.00;99.20;;;;;;2615406;54;20743;-72
2022/09/13 06:47:12;;;;;;;8.50;5.57;;;19.10;97.90;;;;;;2615222;54;20398;-73
2022/09/13 06:52:59;;;;;;;5.70;5.20;;;19.20;98.30;;;;;;2613857;54;20399;-73
2022/09/13 06:58:49;;;;;;;6.50;5.50;;;19.30;96.70;;;;;;2614551;54;20126;-73
2022/09/13 07:04:36;;;;;;;5.93;5.33;;;19.30;95.20;;;;;;2613484;54;20450;-73
2022/09/13 07:10:24;;;;;;;6.57;5.97;;;19.70;92.40;;;;;;2614204;54;20138;-73
2022/09/13 07:16:12;;;;;;;5.60;5.20;;;19.90;91.10;;;;;;2612264;54;20646;-72
2022/09/13 07:22:01;;;;;;;6.40;5.90;;;20.10;86.60;;;;;;2615350;54;20184;-73
2022/09/13 07:27:48;;;;;;;6.43;5.50;;;20.10;83.40;;;;;;2615396;54;20417;-72
2022/09/13 07:37:45;;;;;;;8.17;5.53;;;21.00;67.30;;;;;;2614972;54;21074;-73
2022/09/13 07:43:33;;;;;;;5.20;4.80;;;21.20;64.50;;;;;;2614523;54;21010;-72
2022/09/13 07:49:21;;;;;;;5.80;5.30;;;21.40;65.70;;;;;;2613797;39;20571;-73
2022/09/13 07:55:09;;;;;;;6.05;5.55;;;21.40;62.80;;;;;;2612853;54;20137;-72
2022/09/13 08:07:24;;;;;;;6.37;5.77;;;21.50;56.00;;;;;;2613841;54;20438;-72
2022/09/13 08:13:14;;;;;;;7.70;6.07;;;21.70;60.40;;;;;;2615145;54;20148;-73
2022/09/13 08:19:04;;;;;;;8.07;6.80;;;21.60;58.00;;;;;;2616464;39;20818;-73
2022/09/13 08:24:51;;;;;;;7.50;6.90;;;21.80;56.30;;;;;;2615973;54;20415;-72
2022/09/13 08:30:41;;;;;;;7.93;7.23;;;22.10;53.20;;;;;;2615324;54;20161;-73
2022/09/13 08:33:10;;;;;;;10.87;7.70;;;22.20;52.50;;;;;;2612950;39;20810;-72
2022/09/13 08:35:37;;;;;;;9.07;8.18;;;22.40;50.40;;;;;;2615408;39;20795;-73
2022/09/13 08:41:45;;;;;;;10.43;7.40;;;22.60;47.90;;;;;;2614149;54;20146;-74
2022/09/13 08:48:03;;;;;;;11.83;7.97;;;23.20;41.80;;;;;;2615959;54;20403;-73
2022/09/13 08:53:51;;;;;;;14.63;8.70;;;23.70;38.50;;;;;;2615026;54;20407;-72
2022/09/13 09:06:15;;;;;;;8.50;6.83;;;24.30;38.20;;;;;;2611906;54;20499;-72
2022/09/13 09:18:54;;;;;;;9.27;8.57;;;24.40;36.30;;;;;;2615053;54;21295;-73
2022/09/13 09:24:47;;;;;;;10.33;8.50;;;25.10;29.30;;;;;;2614994;54;20386;-72
2022/09/13 09:40:33;;;;;;;9.33;8.53;;;24.70;28.00;;;;;;2614837;54;20157;-73
2022/09/13 09:46:26;;;;;;;9.33;8.53;;;26.10;26.40;;;;;;2615236;54;20422;-72
2022/09/13 09:52:21;;;;;;;8.57;7.55;;;25.40;30.80;;;;;;2615526;54;20158;-72
2022/09/13 09:58:11;;;;;;;8.95;8.05;;;26.00;28.00;;;;;;2615658;54;20436;-73
2022/09/13 10:04:11;;;;;;;8.10;7.50;;;25.60;27.50;;;;;;2613538;54;20410;-72
2022/09/13 10:10:04;;;;;;;11.83;9.67;;;25.70;27.40;;;;;;2615754;54;20927;-72
2022/09/13 10:15:54;;;;;;;9.90;8.90;;;25.60;24.20;;;;;;2615714;39;20568;-73
2022/09/13 10:21:42;;;;;;;8.67;7.87;;;26.60;24.10;;;;;;2612587;54;21090;-74
2022/09/13 10:27:34;;;;;;;8.47;7.60;;;26.10;26.00;;;;;;2613060;54;20132;-72
2022/09/13 10:33:29;;;;;;;9.17;7.23;;;26.30;23.90;;;;;;2613119;54;20395;-72
2022/09/13 10:42:39;;;;;;;8.73;7.80;;;26.50;22.20;;;;;;2613230;54;20418;-71
2022/09/13 10:48:30;;;;;;;9.07;8.27;;;27.20;23.40;;;;;;2615254;54;20935;-73
2022/09/13 10:54:21;;;;;;;12.50;9.00;;;26.40;26.10;;;;;;2614223;54;20457;-72
2022/09/13 11:00:13;;;;;;;12.00;8.97;;;26.80;24.20;;;;;;2614109;54;20423;-72
2022/09/13 11:25:45;;;;;;;10.37;8.80;;;28.30;19.90;;;;;;2614763;54;21054;-73
2022/09/13 11:31:42;;;;;;;15.10;9.07;;;27.90;20.00;;;;;;2615091;54;20391;-73
2022/09/13 11:37:58;;;;;;;8.80;8.00;;;28.10;21.40;;;;;;2614361;54;20517;-73
2022/09/13 11:50:30;;;;;;;8.00;7.30;;;26.70;20.40;;;;;;2616039;54;20398;-73
2022/09/13 11:56:22;;;;;;;7.47;6.70;;;27.40;23.20;;;;;;2615574;39;20454;-74
2022/09/13 12:02:17;;;;;;;7.73;7.00;;;26.50;22.10;;;;;;2614991;54;20130;-73
2022/09/13 12:08:10;;;;;;;7.97;7.27;;;26.90;23.80;;;;;;2616133;54;20437;-72
2022/09/13 12:14:01;;;;;;;7.63;7.00;;;26.40;22.60;;;;;;2615216;54;20992;-72
2022/09/13 12:19:53;;;;;;;7.50;6.73;;;25.80;24.10;;;;;;2615754;54;20214;-73
2022/09/13 12:32:12;;;;;;;8.67;7.80;;;27.70;22.20;;;;;;2613740;39;20933;-73
2022/09/13 12:44:48;;;;;;;8.20;7.38;;;28.20;20.10;;;;;;2614162;54;20406;-73
2022/09/13 12:50:43;;;;;;;9.40;8.47;;;28.70;22.00;;;;;;2614111;39;20813;-73
2022/09/13 13:15:55;;;;;;;9.50;8.60;;;26.40;25.10;;;;;;2615029;54;20410;-72
2022/09/13 13:21:43;;;;;;;10.87;10.00;;;26.40;26.40;;;;;;2614827;54;20181;-72
2022/09/13 13:27:38;;;;;;;11.27;10.23;;;26.90;26.60;;;;;;2615946;54;20173;-71
2022/09/13 13:33:30;;;;;;;10.27;9.47;;;27.20;26.10;;;;;;2614626;54;20395;-72
2022/09/13 13:42:40;;;;;;;10.97;8.50;;;27.20;26.00;;;;;;2615362;54;20339;-72
2022/09/13 13:48:39;;;;;;;9.40;8.70;;;26.90;25.90;;;;;;2615462;54;20196;-72
2022/09/13 13:54:32;;;;;;;13.20;10.88;;;27.10;21.90;;;;;;2614785;54;20414;-73
2022/09/13 14:23:59;;;;;;;13.50;12.33;;;27.60;23.00;;;;;;2615042;54;20399;-73
2022/09/13 14:29:50;;;;;;;11.87;11.07;;;27.60;22.70;;;;;;2613903;54;20202;-72
2022/09/13 14:35:40;;;;;;;15.23;12.10;;;26.10;26.70;;;;;;2614364;46;20856;-72
2022/09/13 14:44:50;;;;;;;10.63;9.93;;;25.70;28.50;;;;;;2613493;54;20154;-73
2022/09/13 15:03:48;;;;;;;10.23;9.20;;;25.80;31.90;;;;;;2612480;54;20404;-72
2022/09/13 15:09:37;;;;;;;10.73;9.80;;;26.70;31.00;;;;;;2613815;31;20961;-72
2022/09/13 15:15:29;;;;;;;10.23;8.23;;;26.40;32.60;;;;;;2613962;54;20984;-72
2022/09/13 15:21:17;;;;;;;8.80;8.00;;;26.50;31.50;;;;;;2612991;39;20754;-72
2022/09/13 15:33:27;;;;;;;9.30;8.60;;;25.30;38.30;;;;;;2612836;54;20442;-73
2022/09/13 15:39:18;;;;;;;9.80;8.90;;;25.10;40.80;;;;;;2615433;54;20396;-73
2022/09/13 15:45:06;;;;;;;11.00;10.10;;;24.60;46.50;;;;;;2614317;54;20458;-72
2022/09/13 15:54:39;;;;;;;11.33;10.43;;;24.30;54.20;;;;;;2613927;54;20152;-74
2022/09/13 16:00:27;;;;;;;11.40;10.30;;;24.40;60.20;;;;;;2613357;54;20383;-73
2022/09/13 16:06:14;;;;;;;11.47;10.13;;;24.00;63.40;;;;;;2613334;54;20422;-73
2022/09/13 16:12:01;;;;;;;11.60;10.53;;;23.80;68.20;;;;;;2614506;39;20969;-72
2022/09/13 16:17:48;;;;;;;10.40;8.60;;;23.90;71.60;;;;;;2613276;54;20154;-73
2022/09/13 16:23:35;;;;;;;9.13;8.43;;;23.90;76.20;;;;;;2614999;54;20258;-73
2022/09/13 16:29:23;;;;;;;10.35;9.20;;;23.80;78.30;;;;;;2615879;54;20134;-73
2022/09/13 16:35:12;;;;;;;12.73;10.30;;;23.70;82.00;;;;;;2615087;54;20148;-73
2022/09/13 16:40:59;;;;;;;13.80;12.55;;;23.50;89.60;;;;;;2616752;39;20831;-73
2022/09/13 16:47:06;;;;;;;11.73;10.73;;;23.40;91.80;;;;;;2614533;54;20159;-72
2022/09/13 16:59:57;;;;;;;11.13;10.13;;;23.20;95.50;;;;;;2614620;54;20398;-73
2022/09/13 17:12:16;;;;;;;11.43;10.20;;;23.00;99.50;;;;;;2614493;54;20130;-72
2022/09/13 17:18:03;;;;;;;13.00;11.80;;;22.90;99.20;;;;;;2614409;54;20111;-73
2022/09/13 17:27:12;;;;;;;13.37;10.90;;;22.80;99.90;;;;;;2615511;54;20446;-74
2022/09/13 17:33:01;;;;;;;12.13;11.03;;;22.70;99.90;;;;;;2616049;54;20776;-73
2022/09/13 17:38:54;;;;;;;12.60;10.87;;;22.60;99.90;;;;;;2616008;54;20415;-73
2022/09/13 17:48:31;;;;;;;12.57;10.80;;;22.40;99.90;;;;;;2615880;39;20804;-73
2022/09/13 17:54:21;;;;;;;12.50;9.80;;;22.20;99.90;;;;;;2615219;54;20395;-73
2022/09/13 18:00:11;;;;;;;9.97;9.17;;;22.20;99.90;;;;;;2616010;54;20389;-73
2022/09/13 18:06:00;;;;;;;10.90;9.80;;;22.00;99.90;;;;;;2614131;54;20399;-73
2022/09/13 18:11:49;;;;;;;9.30;8.60;;;21.90;99.90;;;;;;2614496;54;20511;-73
2022/09/13 18:17:37;;;;;;;9.70;8.80;;;21.90;99.90;;;;;;2614591;54;20480;-75
2022/09/13 18:23:27;;;;;;;9.95;8.95;;;21.80;99.90;;;;;;2615075;54;20126;-72
2022/09/13 18:29:16;;;;;;;9.37;8.37;;;21.80;99.90;;;;;;2615169;54;20123;-74
2022/09/13 18:35:04;;;;;;;9.37;8.43;;;21.60;99.90;;;;;;2615091;54;20538;-73
2022/09/13 18:41:00;;;;;;;8.30;7.47;;;21.50;99.90;;;;;;2615401;54;20414;-74
2022/09/13 18:44:00;;;;;;;7.10;6.50;;;21.50;99.90;;;;;;2613654;54;20408;-73
2022/09/13 18:46:30;;;;;;;7.13;6.40;;;21.60;99.90;;;;;;2614268;47;20457;-72
2022/09/13 18:52:18;;;;;;;12.63;7.40;;;21.40;99.90;;;;;;2614766;47;20162;-73
2022/09/13 18:58:06;;;;;;;8.23;7.17;;;21.40;99.90;;;;;;2614529;54;20780;-73
2022/09/13 19:03:56;;;;;;;8.97;6.40;;;21.30;99.90;;;;;;2614852;54;20131;-75
2022/09/13 19:09:43;;;;;;;7.60;6.20;;;21.20;99.90;;;;;;2615117;54;20379;-74
2022/09/13 19:15:32;;;;;;;7.50;6.93;;;21.30;99.90;;;;;;2614208;54;20134;-74
2022/09/13 19:21:22;;;;;;;6.33;5.83;;;21.20;99.90;;;;;;2614457;54;20486;-72
2022/09/13 19:27:10;;;;;;;7.70;6.00;;;21.20;99.90;;;;;;2614802;46;20434;-74
2022/09/13 19:32:58;;;;;;;7.73;5.70;;;21.10;99.90;;;;;;2614992;54;20138;-73
2022/09/13 19:38:46;;;;;;;6.73;5.83;;;21.00;99.90;;;;;;2613682;54;20134;-72
2022/09/13 19:48:36;;;;;;;9.60;5.57;;;20.80;99.90;;;;;;2614223;39;20777;-74
2022/09/13 19:54:24;;;;;;;4.67;4.27;;;20.80;99.90;;;;;;2612194;54;20392;-73
2022/09/13 20:00:12;;;;;;;7.33;5.00;;;20.70;99.90;;;;;;2611452;54;20215;-73
2022/09/13 20:06:05;;;;;;;5.10;4.40;;;20.60;99.90;;;;;;2614028;54;20431;-74
2022/09/13 20:11:59;;;;;;;4.53;4.13;;;20.50;99.90;;;;;;2615430;54;20505;-73
2022/09/13 20:17:46;;;;;;;5.97;3.92;;;20.50;99.90;;;;;;2615419;54;20971;-71
2022/09/13 20:23:36;;;;;;;5.40;3.70;;;20.30;97.30;;;;;;2615817;54;20174;-73
2022/09/13 20:29:24;;;;;;;4.13;3.80;;;20.20;95.60;;;;;;2616211;39;20530;-72
2022/09/13 20:35:12;;;;;;;4.57;3.20;;;20.10;96.90;;;;;;2615859;54;20398;-73
2022/09/13 20:41:05;;;;;;;6.90;3.40;;;20.00;93.30;;;;;;2616640;39;20657;-72
2022/09/13 20:44:00;;;;;;;3.20;3.00;;;19.90;89.70;;;;;;2615276;47;20174;-71
2022/09/13 20:46:27;;;;;;;9.03;3.43;;;20.00;86.60;;;;;;2613230;54;20423;-72
2022/09/13 20:52:15;;;;;;;4.90;3.50;;;19.90;85.60;;;;;;2615342;54;20471;-71
2022/09/13 20:58:04;;;;;;;4.60;3.53;;;19.80;85.20;;;;;;2614893;31;20796;-71
2022/09/13 21:03:53;;;;;;;4.63;3.70;;;19.70;80.70;;;;;;2614737;54;20399;-72
2022/09/13 21:09:42;;;;;;;3.60;3.00;;;19.70;77.80;;;;;;2615156;54;20391;-71
2022/09/13 21:15:30;;;;;;;4.20;3.33;;;19.60;81.90;;;;;;2615529;54;20940;-73
2022/09/13 21:21:22;;;;;;;5.60;3.20;;;19.60;78.20;;;;;;2614028;54;20387;-72
2022/09/13 21:27:09;;;;;;;7.07;4.72;;;19.60;79.80;;;;;;2615177;54;20467;-73
2022/09/13 21:32:57;;;;;;;3.40;3.10;;;19.50;77.80;;;;;;2614257;54;20328;-72
2022/09/13 21:38:45;;;;;;;4.23;3.90;;;19.50;75.50;;;;;;2615960;39;20213;-72
2022/09/13 21:48:33;;;;;;;3.30;3.10;;;19.40;71.10;;;;;;2616016;54;20383;-73
2022/09/13 21:54:20;;;;;;;11.20;4.00;;;19.30;73.30;;;;;;2616118;54;20126;-72
2022/09/13 22:00:11;;;;;;;4.72;3.03;;;19.30;74.10;;;;;;2615884;54;20130;-71
2022/09/13 22:05:59;;;;;;;3.90;3.50;;;19.20;73.70;;;;;;2616228;54;20468;-72
2022/09/13 22:11:48;;;;;;;3.90;3.50;;;19.20;72.60;;;;;;2615360;54;20425;-72
2022/09/13 22:17:36;;;;;;;5.30;3.37;;;19.10;73.20;;;;;;2615491;54;20387;-73
2022/09/13 22:23:23;;;;;;;3.70;3.40;;;19.00;73.10;;;;;;2615503;54;20130;-73
2022/09/13 22:29:14;;;;;;;6.20;3.43;;;18.90;77.80;;;;;;2614999;54;20137;-71
2022/09/13 22:35:01;;;;;;;7.27;3.30;;;18.80;84.60;;;;;;2615021;54;20525;-73
2022/09/13 22:41:01;;;;;;;6.17;3.27;;;18.70;83.50;;;;;;2615614;54;20122;-71
2022/09/13 22:44:01;;;;;;;3.87;3.47;;;18.60;81.90;;;;;;2614898;54;20434;-72
2022/09/13 22:52:57;;;;;;;6.17;3.57;;;18.70;84.60;;;;;;2612404;54;20422;-72
2022/09/13 22:58:44;;;;;;;6.65;3.53;;;18.70;85.20;;;;;;2613972;54;20147;-72
2022/09/13 23:04:31;;;;;;;6.13;3.43;;;18.60;87.10;;;;;;2614190;54;20122;-72
2022/09/13 23:10:18;;;;;;;7.43;2.47;;;18.50;95.00;;;;;;2613378;54;20247;-72
2022/09/13 23:16:09;;;;;;;4.23;2.10;;;18.10;99.90;;;;;;2613171;54;20311;-72
2022/09/13 23:21:56;;;;;;;5.97;2.73;;;17.80;99.90;;;;;;2613522;54;20440;-72
2022/09/13 23:27:43;;;;;;;7.90;2.97;;;17.70;99.90;;;;;;2615846;54;20152;-72
2022/09/13 23:33:30;;;;;;;3.43;2.07;;;17.60;99.90;;;;;;2614863;46;20146;-72
2022/09/13 23:39:19;;;;;;;6.23;2.70;;;17.60;99.90;;;;;;2613214;54;20134;-72
2022/09/13 23:48:34;;;;;;;6.80;2.90;;;17.30;99.90;;;;;;2614813;54;20124;-72
2022/09/13 23:54:22;;;;;;;8.20;2.67;;;17.20;99.90;;;;;;2614132;39;20249;-72
